Time;durP1;ratioP1;P1;durP2;ratioP2;P2;SDS_P1;SDS_P2;PMS_P1;PMS_P2;Temp;Humidity;BMP_temperature;BMP_pressure;BME280_temperature;BME280_humidity;BME280_pressure;Samples;Min_cycle;Max_cycle;Signal;HPM_P1;HPM_P2
2022/06/20 00:01:24;;;;;;;;;38.00;30.50;;;;;19.41;62.74;100869.69;5062785;28;46147;-65
2022/06/20 00:03:51;;;;;;;;;34.75;30.00;;;;;19.46;62.75;100872.78;5063123;28;45646;-62
2022/06/20 00:06:21;;;;;;;;;35.25;30.25;;;;;19.49;62.83;100879.63;5063573;28;45462;-64
2022/06/20 00:08:51;;;;;;;;;34.25;31.25;;;;;19.52;62.90;100887.38;5063317;28;45168;-65
2022/06/20 00:11:21;;;;;;;;;37.00;30.00;;;;;19.54;62.79;100898.75;5063982;28;45533;-63
2022/06/20 00:13:50;;;;;;;;;43.50;33.75;;;;;19.58;62.67;100894.00;5068108;28;45392;-67
2022/06/20 00:16:18;;;;;;;;;36.25;31.00;;;;;19.60;63.33;100911.59;5062894;28;45315;-65
2022/06/20 00:18:45;;;;;;;;;29.00;29.00;;;;;19.63;62.88;100934.50;5063618;28;45309;-63
2022/06/20 00:21:14;;;;;;;;;33.75;30.00;;;;;19.62;63.15;100939.00;5062998;28;45383;-66
2022/06/20 00:23:40;;;;;;;;;42.00;32.25;;;;;19.64;63.05;100945.03;5062374;28;45378;-66
2022/06/20 00:26:07;;;;;;;;;40.25;32.00;;;;;19.63;63.27;100951.38;5062939;28;45532;-64
2022/06/20 00:28:33;;;;;;;;;39.25;30.00;;;;;19.62;63.15;100948.84;5065529;28;45444;-64
2022/06/20 00:30:59;;;;;;;;;33.25;29.75;;;;;19.64;63.46;100944.19;5069923;28;45482;-64
2022/06/20 00:33:24;;;;;;;;;33.25;30.25;;;;;19.60;63.69;100922.28;5070532;28;45390;-64
2022/06/20 00:35:50;;;;;;;;;34.25;31.75;;;;;19.56;63.46;100903.97;5070988;28;45682;-64
2022/06/20 00:38:19;;;;;;;;;34.75;32.00;;;;;19.51;63.54;100878.53;5069197;28;45624;-64
2022/06/20 00:40:50;;;;;;;;;34.25;31.25;;;;;19.50;63.81;100858.13;5068509;28;47795;-63
2022/06/20 00:43:45;;;;;;;;;30.50;29.75;;;;;19.49;63.89;100859.09;5069416;27;45474;-66
2022/06/20 00:46:19;;;;;;;;;33.50;30.00;;;;;19.46;63.69;100890.63;5060736;28;45466;-64
2022/06/20 00:48:48;;;;;;;;;34.75;32.50;;;;;19.41;64.09;100895.56;5063258;28;45486;-64
2022/06/20 00:51:28;;;;;;;;;34.25;30.00;;;;;19.36;64.07;100893.34;5063007;28;45658;-64
2022/06/20 00:54:01;;;;;;;;;37.25;32.00;;;;;19.36;64.36;100901.34;5063081;28;45403;-64
2022/06/20 00:56:43;;;;;;;;;35.50;31.75;;;;;19.39;64.32;100919.75;5060434;28;45397;-64
2022/06/20 00:59:14;;;;;;;;;33.00;29.00;;;;;19.41;64.35;100930.28;5063117;28;45436;-64
2022/06/20 01:01:41;;;;;;;;;41.25;32.00;;;;;19.39;64.38;100933.09;5062466;28;46114;-64
2022/06/20 01:04:19;;;;;;;;;38.25;30.25;;;;;19.44;64.62;100946.03;5061182;28;45367;-64
2022/06/20 01:06:51;;;;;;;;;37.00;30.75;;;;;19.48;64.49;100952.78;5062527;28;45426;-64
2022/06/20 01:09:20;;;;;;;;;31.75;29.50;;;;;19.52;64.49;100957.69;5062495;28;45261;-64
2022/06/20 01:11:49;;;;;;;;;37.25;29.25;;;;;19.49;64.63;100960.63;5062223;28;47062;-64
2022/06/20 01:14:39;;;;;;;;;33.00;27.75;;;;;19.46;64.82;100963.59;5062550;28;45341;-64
2022/06/20 01:17:15;;;;;;;;;38.50;30.75;;;;;19.46;65.09;100963.59;5062742;28;45307;-64
2022/06/20 01:19:56;;;;;;;;;34.50;30.25;;;;;19.46;65.00;100952.91;5062844;28;45252;-64
2022/06/20 01:23:12;;;;;;;;;33.00;30.25;;;;;19.48;65.02;100942.09;5062310;28;46257;-64
2022/06/20 01:26:05;;;;;;;;;31.00;29.25;;;;;19.49;65.10;100936.59;5039612;28;45517;-64
2022/06/20 01:28:37;;;;;;;;;33.00;30.00;;;;;19.52;65.39;100932.81;5062485;28;45491;-64
2022/06/20 01:31:04;;;;;;;;;31.00;28.75;;;;;19.52;64.99;100919.44;5062281;28;45340;-64
2022/06/20 01:33:30;;;;;;;;;35.00;30.00;;;;;19.49;64.95;100915.22;5062253;28;45378;-64
2022/06/20 01:38:44;;;;;;;;;38.25;31.75;;;;;19.42;65.03;100878.53;5062499;28;45442;-64
2022/06/20 01:43:56;;;;;;;;;35.00;31.75;;;;;19.38;65.07;100835.25;5060699;28;45489;-65
2022/06/20 01:46:27;;;;;;;;;32.25;30.25;;;;;19.32;65.01;100816.28;5060707;28;45588;-64
2022/06/20 01:48:57;;;;;;;;;33.25;30.00;;;;;19.32;65.16;100800.25;5061843;28;45241;-64
2022/06/20 01:51:27;;;;;;;;;32.00;28.25;;;;;19.31;65.51;100788.75;5062267;28;45515;-64
2022/06/20 01:53:55;;;;;;;;;33.50;27.00;;;;;19.30;65.24;100771.03;5062195;28;46097;-64
2022/06/20 01:56:23;;;;;;;;;29.50;28.50;;;;;19.27;65.14;100730.41;5062000;28;45413;-65
2022/06/20 01:58:57;;;;;;;;;29.00;28.50;;;;;19.22;65.60;100680.13;5062267;28;45319;-63
2022/06/20 02:01:23;;;;;;;;;32.50;29.50;;;;;19.16;65.76;100656.66;5061940;28;45358;-64
2022/06/20 02:03:49;;;;;;;;;32.00;30.00;;;;;19.10;65.66;100625.22;5061770;28;45364;-64
2022/06/20 02:06:17;;;;;;;;;50.50;40.25;;;;;19.05;65.38;100598.16;5062067;28;45268;-64
2022/06/20 02:08:48;;;;;;;;;30.00;27.75;;;;;18.96;65.80;100547.31;5062253;28;45314;-65
2022/06/20 02:11:23;;;;;;;;;30.50;26.75;;;;;18.91;66.04;100512.22;5062269;28;45407;-65
2022/06/20 02:13:54;;;;;;;;;26.00;25.25;;;;;18.89;66.26;100505.38;5061812;28;45398;-64
2022/06/20 02:16:22;;;;;;;;;31.75;29.25;;;;;18.87;65.87;100510.00;5061581;28;45402;-64
2022/06/20 02:18:53;;;;;;;;;28.00;27.00;;;;;18.85;66.42;100520.00;5061811;28;45377;-64
2022/06/20 02:21:31;;;;;;;;;34.00;24.75;;;;;18.84;66.35;100550.34;5062004;28;45204;-64
2022/06/20 02:24:04;;;;;;;;;25.25;24.50;;;;;18.82;66.32;100593.19;5061640;28;45313;-64
2022/06/20 02:26:34;;;;;;;;;27.75;27.75;;;;;18.84;66.56;100635.75;5061698;28;45374;-64
2022/06/20 02:29:08;;;;;;;;;28.00;23.50;;;;;18.86;66.69;100676.47;5061874;28;45326;-64
2022/06/20 02:31:33;;;;;;;;;26.00;24.00;;;;;18.87;66.87;100710.16;5061205;28;45383;-64
2022/06/20 02:34:01;;;;;;;;;28.25;26.00;;;;;18.90;67.03;100739.25;5061638;28;45330;-64
2022/06/20 02:36:26;;;;;;;;;27.75;23.00;;;;;18.92;66.96;100751.47;5061617;28;45442;-64
2022/06/20 02:38:52;;;;;;;;;24.25;23.50;;;;;18.97;66.77;100753.72;5061661;28;45485;-64
2022/06/20 02:41:23;;;;;;;;;30.50;26.50;;;;;19.03;66.94;100753.13;5061516;28;45283;-64
2022/06/20 02:43:55;;;;;;;;;30.50;25.25;;;;;19.06;67.35;100762.69;5061380;28;45563;-64
2022/06/20 02:46:25;;;;;;;;;30.75;26.50;;;;;19.05;67.45;100783.19;5061187;28;45347;-64
2022/06/20 02:48:54;;;;;;;;;28.50;26.50;;;;;19.04;67.12;100802.88;5061663;28;45233;-64
2022/06/20 02:51:25;;;;;;;;;27.75;24.50;;;;;19.07;66.97;100807.94;5061572;28;45485;-64
2022/06/20 02:53:58;;;;;;;;;30.75;28.25;;;;;19.08;67.48;100814.94;5061281;28;45405;-64
2022/06/20 02:56:28;;;;;;;;;28.00;25.50;;;;;19.07;67.23;100821.28;5061037;28;45484;-65
2022/06/20 02:59:02;;;;;;;;;22.50;21.00;;;;;19.08;67.35;100817.63;5059453;28;45410;-64
2022/06/20 03:01:49;;;;;;;;;27.00;24.50;;;;;19.10;67.24;100817.47;5060712;28;45557;-64
2022/06/20 03:04:16;;;;;;;;;25.25;23.50;;;;;19.13;67.48;100806.50;5058375;28;45466;-64
2022/06/20 03:06:49;;;;;;;;;26.75;25.00;;;;;19.17;67.19;100806.06;5060650;28;45643;-64
2022/06/20 03:09:19;;;;;;;;;27.25;25.75;;;;;19.17;67.50;100808.72;5060143;28;45477;-64
2022/06/20 03:11:45;;;;;;;;;27.25;25.00;;;;;19.15;67.60;100829.41;5060413;28;45381;-64
2022/06/20 03:14:14;;;;;;;;;27.75;25.00;;;;;19.17;67.68;100842.59;5059741;28;46062;-64
2022/06/20 03:16:40;;;;;;;;;25.00;23.25;;;;;19.14;67.58;100851.75;5060172;28;45469;-65
2022/06/20 03:19:14;;;;;;;;;28.00;23.00;;;;;19.15;67.09;100865.94;5060271;28;45604;-64
2022/06/20 03:21:43;;;;;;;;;27.50;26.50;;;;;19.16;67.61;100871.13;5060472;28;45485;-64
2022/06/20 03:24:14;;;;;;;;;24.75;23.00;;;;;19.20;67.54;100869.03;5060918;28;45374;-64
2022/06/20 03:26:40;;;;;;;;;26.25;24.25;;;;;19.22;67.07;100885.75;5059941;28;45351;-64
2022/06/20 03:29:11;;;;;;;;;25.00;20.25;;;;;19.23;67.22;100885.63;5061050;28;45358;-64
2022/06/20 03:31:37;;;;;;;;;22.75;22.75;;;;;19.19;67.30;100880.69;5060922;28;45323;-64
2022/06/20 03:34:02;;;;;;;;;30.00;25.00;;;;;19.16;67.36;100892.50;5060461;28;45972;-63
2022/06/20 03:36:28;;;;;;;;;27.50;20.75;;;;;19.15;67.56;100892.66;5060795;28;45170;-64
2022/06/20 03:38:56;;;;;;;;;30.25;28.75;;;;;19.10;67.27;100901.09;5060985;28;45512;-64
2022/06/20 03:41:25;;;;;;;;;27.75;25.75;;;;;19.11;67.10;100909.94;5060885;28;45310;-64
2022/06/20 03:43:57;;;;;;;;;29.00;27.00;;;;;19.10;67.61;100917.09;5060790;28;46346;-64
2022/06/20 03:46:30;;;;;;;;;29.00;29.00;;;;;19.11;67.04;100917.94;5060568;28;45472;-64
2022/06/20 03:49:21;;;;;;;;;27.75;23.75;;;;;19.11;67.23;100920.63;5060714;28;45363;-64
2022/06/20 03:52:02;;;;;;;;;28.00;26.00;;;;;19.10;67.32;100916.25;5061030;28;45557;-64
2022/06/20 03:54:36;;;;;;;;;21.25;20.75;;;;;19.09;67.13;100931.44;5060606;28;45563;-64
2022/06/20 03:57:11;;;;;;;;;28.75;28.75;;;;;19.09;67.27;100928.78;5060626;28;45335;-64
2022/06/20 03:59:43;;;;;;;;;27.25;26.00;;;;;19.07;66.95;100924.56;5060334;28;45314;-65
2022/06/20 04:02:20;;;;;;;;;36.25;30.00;;;;;19.04;67.08;100928.38;5060576;28;45332;-64
2022/06/20 04:04:59;;;;;;;;;28.00;25.50;;;;;19.00;67.02;100928.78;5060651;28;45321;-64
2022/06/20 04:07:33;;;;;;;;;26.75;25.50;;;;;19.00;66.52;100920.78;5060434;28;45244;-63
2022/06/20 04:13:01;;;;;;;;;24.75;24.00;;;;;18.90;66.69;100937.63;5060661;28;45315;-64
2022/06/20 04:15:40;;;;;;;;;27.50;26.00;;;;;18.86;66.23;100948.72;5060035;28;46137;-63
2022/06/20 04:18:29;;;;;;;;;32.00;25.75;;;;;18.78;66.25;100943.22;5060533;28;45195;-64
2022/06/20 04:20:58;;;;;;;;;26.75;25.75;;;;;18.73;66.46;100956.16;5060458;28;45408;-63
2022/06/20 04:23:47;;;;;;;;;25.50;24.00;;;;;18.71;66.32;100964.28;5060207;28;45310;-64
2022/06/20 04:26:20;;;;;;;;;29.00;26.25;;;;;18.71;66.52;100966.13;5058968;28;45494;-64
2022/06/20 04:29:07;;;;;;;;;27.50;27.00;;;;;18.65;66.34;100968.38;5057936;28;45366;-64
2022/06/20 04:31:48;;;;;;;;;26.00;23.50;;;;;18.64;66.37;100960.44;5058128;28;45586;-63
2022/06/20 04:34:22;;;;;;;;;31.00;25.50;;;;;18.65;66.15;100973.72;5058096;28;45487;-64
2022/06/20 04:37:23;;;;;;;;;27.50;24.25;;;;;18.59;66.28;100966.22;5058980;28;46044;-64
2022/06/20 04:40:13;;;;;;;;;22.00;19.25;;;;;18.56;65.99;100968.28;5059526;28;45540;-64
2022/06/20 04:42:41;;;;;;;;;29.50;28.50;;;;;18.56;66.29;100966.47;5052548;28;45424;-64
2022/06/20 04:45:17;;;;;;;;;30.00;25.50;;;;;18.56;66.40;100963.78;5063341;28;45496;-64
2022/06/20 04:48:04;;;;;;;;;27.50;27.00;;;;;18.58;66.23;100971.69;5063106;28;46338;-64
2022/06/20 04:50:33;;;;;;;;;28.00;26.50;;;;;18.55;66.34;100980.78;5063001;28;45403;-64
2022/06/20 04:53:08;;;;;;;;;25.00;20.25;;;;;18.53;65.98;100990.75;5063357;28;45311;-64
2022/06/20 04:55:38;;;;;;;;;31.25;28.00;;;;;18.50;66.34;101003.53;5062723;28;45427;-63
2022/06/20 04:58:08;;;;;;;;;29.50;27.75;;;;;18.49;66.02;101013.38;5063221;28;45321;-64
2022/06/20 05:00:40;;;;;;;;;26.50;25.25;;;;;18.44;66.11;101025.41;5062824;28;45310;-64
2022/06/20 05:03:08;;;;;;;;;24.50;22.00;;;;;18.44;66.17;101009.41;5062210;28;45383;-64
2022/06/20 05:05:39;;;;;;;;;27.50;24.75;;;;;18.46;66.18;101016.28;5061550;28;45426;-63
2022/06/20 05:08:09;;;;;;;;;23.25;22.00;;;;;18.46;66.12;101008.28;5062812;28;45268;-63
2022/06/20 05:10:46;;;;;;;;;25.75;23.25;;;;;18.47;65.97;101020.63;5062501;28;45289;-64
2022/06/20 05:13:27;;;;;;;;;28.50;22.75;;;;;18.49;66.26;101023.19;5062681;28;45354;-64
2022/06/20 05:15:53;;;;;;;;;22.50;22.25;;;;;18.50;66.10;101031.06;5062419;28;45477;-63
2022/06/20 05:18:36;;;;;;;;;22.75;18.75;;;;;18.52;66.11;101033.59;5062301;28;46271;-63
2022/06/20 05:21:26;;;;;;;;;18.50;17.75;;;;;18.50;66.11;101028.41;5062294;28;45354;-64
2022/06/20 05:23:57;;;;;;;;;26.75;21.50;;;;;18.53;65.93;101022.78;5062990;28;45300;-64
2022/06/20 05:26:30;;;;;;;;;23.75;22.75;;;;;18.56;65.93;101021.66;5061458;28;45878;-63
2022/06/20 05:29:01;;;;;;;;;22.00;18.25;;;;;18.56;65.84;101017.16;5060868;28;46230;-63
2022/06/20 05:31:40;;;;;;;;;26.25;21.75;;;;;18.59;65.90;101016.06;5072347;28;45167;-63
2022/06/20 05:34:10;;;;;;;;;24.25;20.00;;;;;18.63;65.86;101017.47;5062593;28;45327;-64
2022/06/20 05:36:49;;;;;;;;;25.25;20.00;;;;;18.62;65.92;101021.97;5062734;28;45436;-62
2022/06/20 05:39:23;;;;;;;;;21.25;19.50;;;;;18.64;65.85;101029.81;5062101;28;45432;-65
2022/06/20 05:41:50;;;;;;;;;24.25;21.00;;;;;18.64;65.75;101037.81;5062103;28;45402;-64
2022/06/20 05:44:16;;;;;;;;;21.25;19.25;;;;;18.60;65.61;101036.44;5061804;28;45448;-64
2022/06/20 05:47:03;;;;;;;;;20.75;19.50;;;;;18.59;65.79;101053.41;5062322;28;45534;-64
2022/06/20 05:49:46;;;;;;;;;18.75;18.00;;;;;18.55;65.86;101060.00;5061311;28;46248;-63
2022/06/20 05:52:18;;;;;;;;;19.00;15.00;;;;;18.48;65.84;101057.00;5062347;28;45430;-62
2022/06/20 05:54:54;;;;;;;;;20.00;16.50;;;;;18.44;65.50;101063.59;5062392;28;45399;-63
2022/06/20 05:57:24;;;;;;;;;8.75;8.00;;;;;18.41;65.68;101062.06;5062196;28;45289;-64
2022/06/20 05:59:55;;;;;;;;;15.50;13.50;;;;;18.39;65.27;101069.31;5062109;28;45640;-65
2022/06/20 06:02:34;;;;;;;;;16.50;16.25;;;;;18.37;65.64;101068.63;5074931;28;45341;-52
2022/06/20 06:05:38;;;;;;;;;14.75;13.00;;;;;18.59;66.08;101075.59;5066451;28;45901;-63
2022/06/20 06:08:31;;;;;;;;;18.00;16.25;;;;;18.89;65.88;101081.94;5050934;28;45537;-61
2022/06/20 06:11:06;;;;;;;;;18.75;17.25;;;;;19.05;66.32;101087.59;5061338;28;46130;-49
2022/06/20 06:13:46;;;;;;;;;19.50;18.25;;;;;19.25;66.02;101091.13;5061281;28;45520;-55
2022/06/20 06:16:48;;;;;;;;;14.75;14.00;;;;;19.38;65.87;101097.06;5064862;28;45414;-54
2022/06/20 06:19:32;;;;;;;;;16.00;13.75;;;;;19.49;65.69;101104.09;5051441;28;45568;-68
2022/06/20 06:22:06;;;;;;;;;15.50;13.75;;;;;19.47;65.61;101108.72;5059501;28;45544;-68
2022/06/20 06:24:37;;;;;;;;;12.50;11.75;;;;;19.45;65.32;101106.22;5055785;28;45347;-68
2022/06/20 06:27:06;;;;;;;;;17.75;13.50;;;;;19.50;65.32;101117.31;5061445;28;45232;-67
2022/06/20 06:29:40;;;;;;;;;16.75;14.25;;;;;19.44;64.81;101133.06;5061265;28;45314;-68
2022/06/20 06:32:18;;;;;;;;;12.50;11.00;;;;;19.40;64.48;101134.31;5061047;28;45719;-67
2022/06/20 06:35:14;;;;;;;;;13.25;12.50;;;;;19.36;64.28;101128.41;5060475;28;45252;-67
2022/06/20 06:37:52;;;;;;;;;13.25;12.25;;;;;19.36;64.61;101138.25;5057551;28;45283;-66
2022/06/20 06:40:26;;;;;;;;;8.50;7.25;;;;;19.37;64.25;101138.13;5061299;28;45173;-67
2022/06/20 06:42:56;;;;;;;;;14.00;12.50;;;;;19.30;64.38;101136.97;5066304;28;45586;-57
2022/06/20 06:45:24;;;;;;;;;17.25;15.50;;;;;19.27;64.09;101144.41;5083480;28;45429;-59
2022/06/20 06:48:13;;;;;;;;;18.50;14.75;;;;;19.23;64.26;101135.84;5071568;28;45455;-46
2022/06/20 06:50:47;;;;;;;;;16.00;12.50;;;;;19.33;64.13;101144.69;5069170;28;45521;-54
2022/06/20 06:53:43;;;;;;;;;14.25;14.00;;;;;19.30;64.00;101147.66;5069429;28;46256;-48
2022/06/20 06:56:19;;;;;;;;;18.00;15.25;;;;;19.28;63.90;101140.78;5070957;28;45402;-51
2022/06/20 06:58:59;;;;;;;;;16.50;13.50;;;;;19.30;63.67;101149.50;5070695;28;45484;-53
2022/06/20 07:01:32;;;;;;;;;16.25;13.50;;;;;19.33;63.76;101144.69;5071421;28;45429;-50
2022/06/20 07:04:12;;;;;;;;;13.75;13.75;;;;;19.39;63.45;101154.00;5066255;28;46337;-51
2022/06/20 07:06:50;;;;;;;;;18.00;15.75;;;;;19.40;63.35;101158.34;5072407;28;45520;-48
2022/06/20 07:09:25;;;;;;;;;17.25;15.50;;;;;19.27;63.29;101160.44;5068898;28;45362;-52
2022/06/20 07:12:03;;;;;;;;;18.50;13.25;;;;;19.14;63.13;101174.03;5067612;28;45630;-51
2022/06/20 07:14:33;;;;;;;;;19.00;16.00;;;;;19.03;62.95;101174.13;5066647;28;45398;-56
2022/06/20 07:17:08;;;;;;;;;16.25;13.25;;;;;18.91;63.24;101181.41;5073074;28;45449;-55
2022/06/20 07:19:39;;;;;;;;;21.50;16.00;;;;;18.84;63.25;101190.91;5066794;27;45478;-56
2022/06/20 07:22:05;;;;;;;;;20.00;16.25;;;;;18.79;63.36;101191.31;5063542;28;45588;-56
2022/06/20 07:24:33;;;;;;;;;15.50;12.25;;;;;18.68;63.17;101178.91;5067143;28;46031;-57
2022/06/20 07:27:11;;;;;;;;;18.00;14.50;;;;;18.64;63.02;101184.59;5069381;28;45574;-56
2022/06/20 07:29:47;;;;;;;;;18.00;16.75;;;;;18.56;63.36;101187.91;5065289;28;45485;-56
2022/06/20 07:32:19;;;;;;;;;22.25;17.00;;;;;18.52;63.00;101189.16;5065100;28;45458;-57
2022/06/20 07:34:59;;;;;;;;;14.75;14.75;;;;;18.47;63.08;101193.19;5062621;28;46076;-56
2022/06/20 07:37:41;;;;;;;;;20.25;17.75;;;;;18.45;63.32;101200.50;5065433;28;45906;-55
2022/06/20 07:40:23;;;;;;;;;18.00;15.25;;;;;18.41;63.11;101200.78;5068194;27;45468;-57
2022/06/20 07:43:12;;;;;;;;;21.25;16.25;;;;;18.44;63.55;101209.47;5066713;28;45463;-55
2022/06/20 07:45:41;;;;;;;;;21.75;15.00;;;;;18.41;63.25;101205.25;5064160;28;45662;-57
2022/06/20 07:48:35;;;;;;;;;20.50;18.25;;;;;18.38;63.44;101209.00;5065313;28;45648;-57
2022/06/20 07:51:15;;;;;;;;;20.50;18.00;;;;;18.33;63.29;101218.41;5068217;28;45500;-56
2022/06/20 07:54:08;;;;;;;;;16.25;15.75;;;;;18.31;63.58;101207.00;5065783;28;45521;-56
2022/06/20 07:56:44;;;;;;;;;18.00;15.75;;;;;18.28;63.53;101218.78;5066508;28;45745;-56
2022/06/20 07:59:27;;;;;;;;;19.50;15.50;;;;;18.28;63.96;101226.78;5065983;28;45507;-57
2022/06/20 08:02:06;;;;;;;;;19.00;15.75;;;;;18.26;63.45;101225.22;5063988;28;45412;-56
2022/06/20 08:04:34;;;;;;;;;18.75;17.00;;;;;18.22;63.66;101229.09;5065655;28;45421;-54
2022/06/20 08:07:20;;;;;;;;;20.25;15.25;;;;;18.20;63.61;101223.06;5066943;28;45576;-57
2022/06/20 08:09:56;;;;;;;;;15.75;13.00;;;;;18.20;63.53;101229.22;5067491;28;45528;-57
2022/06/20 08:12:31;;;;;;;;;21.50;17.50;;;;;18.25;63.77;101218.19;5066396;28;46536;-53
2022/06/20 08:15:03;;;;;;;;;19.00;17.00;;;;;18.27;63.69;101219.75;5067719;28;45398;-53
2022/06/20 08:17:30;;;;;;;;;17.00;13.75;;;;;18.27;63.82;101222.41;5070557;28;45442;-56
2022/06/20 08:19:58;;;;;;;;;19.25;18.00;;;;;18.31;63.81;101221.16;5069406;27;45477;-56
2022/06/20 08:22:34;;;;;;;;;15.25;14.50;;;;;18.34;63.99;101220.09;5070435;28;45536;-52
2022/06/20 08:25:08;;;;;;;;;20.50;17.25;;;;;18.30;63.64;101219.47;5070377;28;45797;-58
2022/06/20 08:27:43;;;;;;;;;22.00;15.50;;;;;18.30;63.66;101216.81;5067908;28;45529;-55
2022/06/20 08:30:16;;;;;;;;;18.50;16.00;;;;;18.35;63.83;101219.94;5070928;28;45349;-59
2022/06/20 08:33:08;;;;;;;;;18.25;16.50;;;;;18.38;63.95;101222.34;5069781;28;45362;-53
2022/06/20 08:35:52;;;;;;;;;18.25;16.50;;;;;18.42;63.86;101225.63;5068139;28;45575;-56
2022/06/20 08:38:24;;;;;;;;;20.25;15.75;;;;;18.45;63.99;101227.16;5062071;28;46155;-57
2022/06/20 08:41:10;;;;;;;;;18.50;17.50;;;;;18.49;63.63;101224.13;5066328;28;45490;-58
2022/06/20 08:44:12;;;;;;;;;18.25;16.00;;;;;18.48;63.66;101219.75;5061281;28;45464;-58
2022/06/20 08:47:02;;;;;;;;;19.00;16.00;;;;;18.45;63.86;101217.34;5063458;28;45696;-58
2022/06/20 08:49:46;;;;;;;;;20.25;16.00;;;;;18.49;64.01;101215.28;5063159;28;45434;-58
2022/06/20 08:52:19;;;;;;;;;25.50;20.50;;;;;18.53;63.67;101225.53;5063219;28;45464;-58
2022/06/20 08:55:05;;;;;;;;;19.25;17.50;;;;;18.56;63.81;101235.09;5063416;28;45296;-58
2022/06/20 08:57:46;;;;;;;;;22.50;16.25;;;;;18.52;63.54;101245.19;5063500;28;45319;-58
2022/06/20 09:00:24;;;;;;;;;21.00;17.75;;;;;18.53;63.46;101235.38;5062916;28;46190;-58
2022/06/20 09:03:14;;;;;;;;;22.25;18.75;;;;;18.60;63.70;101236.53;5062871;28;45355;-58
2022/06/20 09:05:51;;;;;;;;;21.00;17.50;;;;;18.66;63.51;101247.56;5063154;28;45292;-58
2022/06/20 09:08:43;;;;;;;;;23.75;20.25;;;;;18.73;63.99;101247.06;5063293;28;45528;-58
2022/06/20 09:11:14;;;;;;;;;21.75;19.50;;;;;18.78;63.44;101252.84;5062902;28;45326;-58
2022/06/20 09:13:57;;;;;;;;;20.50;16.50;;;;;18.73;63.60;101266.59;5063040;28;45236;-58
2022/06/20 09:16:41;;;;;;;;;19.75;18.50;;;;;18.69;63.28;101265.16;5062948;28;45477;-59
2022/06/20 09:19:19;;;;;;;;;26.50;19.00;;;;;18.68;63.07;101271.47;5062909;28;45291;-59
2022/06/20 09:22:33;;;;;;;;;16.25;16.00;;;;;18.69;63.61;101275.81;5062850;28;45266;-59
2022/06/20 09:25:07;;;;;;;;;18.75;18.25;;;;;18.69;63.23;101274.00;5052925;28;46483;-58
2022/06/20 09:27:57;;;;;;;;;21.25;18.00;;;;;18.67;63.40;101281.28;5061446;28;45240;-59
2022/06/20 09:30:47;;;;;;;;;21.00;17.75;;;;;18.66;63.11;101279.59;5062620;28;45319;-58
2022/06/20 09:33:34;;;;;;;;;18.50;16.75;;;;;18.67;62.98;101267.09;5062547;28;45269;-58
2022/06/20 09:36:37;;;;;;;;;20.00;18.50;;;;;18.74;63.26;101259.44;5062738;28;45714;-59
2022/06/20 09:39:21;;;;;;;;;22.50;18.50;;;;;18.79;63.54;101268.72;5062679;28;45178;-51
2022/06/20 09:42:13;;;;;;;;;19.00;19.00;;;;;18.79;63.07;101283.88;5062694;28;45454;-64
2022/06/20 09:44:56;;;;;;;;;22.25;20.00;;;;;18.78;63.03;101284.84;5062195;28;46519;-64
2022/06/20 09:47:43;;;;;;;;;19.75;18.25;;;;;18.77;63.03;101289.34;5062297;28;45390;-64
2022/06/20 09:50:24;;;;;;;;;20.25;16.75;;;;;18.78;63.36;101292.88;5061812;28;45444;-64
2022/06/20 09:53:14;;;;;;;;;21.25;17.00;;;;;18.81;63.12;101292.63;5062417;28;45536;-65
2022/06/20 09:56:08;;;;;;;;;17.00;15.50;;;;;18.85;63.29;101299.38;5062359;28;45500;-65
2022/06/20 09:58:46;;;;;;;;;23.00;19.00;;;;;18.86;63.15;101285.06;5062214;28;45276;-65
2022/06/20 10:01:26;;;;;;;;;17.75;16.00;;;;;18.92;62.96;101298.72;5062280;28;45263;-64
2022/06/20 10:04:17;;;;;;;;;20.50;16.75;;;;;19.00;62.97;101292.72;5062110;28;45424;-64
2022/06/20 10:07:04;;;;;;;;;16.75;16.25;;;;;19.09;62.73;101291.94;5061988;28;46475;-64
2022/06/20 10:09:39;;;;;;;;;20.00;17.00;;;;;19.21;62.83;101295.38;5061653;28;45285;-64
2022/06/20 10:12:09;;;;;;;;;16.50;15.75;;;;;19.26;62.85;101298.47;5062085;28;45236;-64
2022/06/20 10:14:49;;;;;;;;;19.75;14.50;;;;;19.33;62.86;101294.31;5061843;28;45257;-64
2022/06/20 10:17:52;;;;;;;;;14.75;14.75;;;;;19.42;62.43;101293.50;5062011;28;45304;-64
2022/06/20 10:20:39;;;;;;;;;20.25;17.75;;;;;19.52;62.61;101296.22;5068870;28;45234;-64
2022/06/20 10:23:16;;;;;;;;;19.50;16.75;;;;;19.60;62.68;101295.59;5061856;28;45277;-64
2022/06/20 10:25:44;;;;;;;;;17.25;14.25;;;;;19.67;62.47;101292.22;5061543;28;45362;-64
2022/06/20 10:28:30;;;;;;;;;15.75;13.00;;;;;19.75;62.49;101300.41;5061827;28;45356;-64
2022/06/20 10:31:11;;;;;;;;;19.75;14.25;;;;;19.82;61.85;101298.00;5061374;28;45345;-64
2022/06/20 10:33:45;;;;;;;;;18.25;14.75;;;;;19.87;61.98;101298.47;5061864;28;45330;-64
2022/06/20 10:36:25;;;;;;;;;17.00;15.25;;;;;19.94;61.90;101301.44;5061564;28;45315;-64
2022/06/20 10:38:50;;;;;;;;;15.50;14.50;;;;;20.00;61.55;101309.75;5061249;28;45225;-64
2022/06/20 10:41:39;;;;;;;;;19.75;17.50;;;;;20.07;61.47;101308.22;5061240;28;45323;-64
2022/06/20 10:45:03;;;;;;;;;19.25;17.00;;;;;20.18;61.27;101306.41;5061378;28;45414;-64
2022/06/20 10:48:11;;;;;;;;;18.50;16.00;;;;;20.30;61.13;101313.28;5039296;28;45313;-64
2022/06/20 10:50:44;;;;;;;;;15.75;15.50;;;;;20.38;61.24;101304.56;5036573;28;46154;-64
2022/06/20 10:53:23;;;;;;;;;18.75;15.50;;;;;20.46;61.54;101310.09;5060005;28;45267;-64
2022/06/20 10:56:15;;;;;;;;;16.50;14.50;;;;;20.48;61.00;101308.97;5060842;28;45723;-64
2022/06/20 10:58:56;;;;;;;;;19.25;17.00;;;;;20.51;61.24;101302.50;5061196;28;45354;-64
2022/06/20 11:01:40;;;;;;;;;15.50;14.00;;;;;20.50;60.72;101317.72;5061085;28;45481;-64
2022/06/20 11:04:14;;;;;;;;;14.75;13.00;;;;;20.53;60.75;101313.88;5060992;28;45793;-64
2022/06/20 11:07:02;;;;;;;;;20.00;15.25;;;;;20.54;60.54;101318.28;5061249;28;45344;-64
2022/06/20 11:09:58;;;;;;;;;15.00;13.75;;;;;20.58;60.63;101328.56;5061105;28;45497;-64
2022/06/20 11:12:35;;;;;;;;;16.75;14.50;;;;;20.65;60.56;101330.66;5061029;28;45332;-64
2022/06/20 11:15:19;;;;;;;;;19.50;16.50;;;;;20.69;60.49;101327.53;5060673;28;45272;-64
2022/06/20 11:18:06;;;;;;;;;19.75;15.75;;;;;20.74;60.07;101317.25;5061060;28;45243;-64
2022/06/20 11:20:43;;;;;;;;;19.50;16.25;;;;;20.85;60.06;101325.16;5068518;27;45514;-64
2022/06/20 11:23:19;;;;;;;;;15.25;13.25;;;;;20.96;60.29;101310.75;5061524;28;45320;-64
2022/06/20 11:26:01;;;;;;;;;15.75;14.25;;;;;21.07;59.97;101315.94;5060761;28;45481;-64
2022/06/20 11:28:56;;;;;;;;;26.25;22.50;;;;;21.20;60.11;101326.34;5060798;28;45439;-64
2022/06/20 11:32:00;;;;;;;;;16.25;14.75;;;;;21.26;59.96;101325.78;5061059;28;45284;-64
2022/06/20 11:34:47;;;;;;;;;16.50;15.00;;;;;21.29;59.84;101319.28;5060666;28;45890;-64
2022/06/20 11:37:34;;;;;;;;;17.25;15.00;;;;;21.31;59.67;101320.84;5060719;28;45308;-64
2022/06/20 11:40:17;;;;;;;;;16.00;15.50;;;;;21.35;59.50;101321.41;5060907;28;45309;-64
2022/06/20 11:42:58;;;;;;;;;13.75;13.00;;;;;21.33;59.53;101326.03;5060803;28;45273;-64
2022/06/20 11:45:48;;;;;;;;;19.75;15.00;;;;;21.30;59.36;101320.97;5060310;28;46025;-64
2022/06/20 11:48:35;;;;;;;;;19.00;18.00;;;;;21.32;59.48;101329.72;5060836;28;45363;-64
2022/06/20 11:51:22;;;;;;;;;20.00;15.00;;;;;21.35;59.02;101324.91;5064297;28;45212;-64
2022/06/20 11:54:17;;;;;;;;;14.00;14.00;;;;;21.43;59.36;101333.06;5064051;28;45258;-64
2022/06/20 11:57:13;;;;;;;;;17.00;13.50;;;;;21.53;59.36;101329.50;5063871;28;46092;-65
2022/06/20 12:00:00;;;;;;;;;16.25;13.25;;;;;21.60;59.16;101327.91;5063596;28;45297;-64
2022/06/20 12:02:41;;;;;;;;;15.50;14.25;;;;;21.61;59.15;101327.78;5064107;28;45335;-65
2022/06/20 12:05:06;;;;;;;;;14.75;11.50;;;;;21.66;58.77;101319.28;5064190;28;45327;-64